Airport View

Enter AWOS ICAO identifier for current METAR.

ex. KFNL

KGJT 120453Z AUTO 05003KT 10SM CLR M03/M06 A3023 RMK AO2 SLP257 T10331056

12 Dec 2019 05:42

Frequency: 118.550

Phone: 970-245-7881

Other Area AWOS: KAJZ - KRIL - KMTJ - KAIB

TAF KGJT 112330Z 1200/1224 31003KT P6SM SCT080 BKN180 FM120300 07003KT P6SM SCT080 SCT200 FM121100 11004KT P6SM SCT100 SCT150 FM121500 12004KT P6SM SCT080 BKN120 FM121800 VRB03KT P6SM SCT080 SCT100